createdAt,value
2017-09-20T00:00:24.869Z,79.86
2017-09-20T00:01:37.132Z,79.77
2017-09-20T00:02:49.650Z,80.05
2017-09-20T00:04:01.545Z,80.05
2017-09-20T00:05:13.751Z,80.63
2017-09-20T00:06:25.665Z,80.34
2017-09-20T00:07:38.202Z,79.96
2017-09-20T00:08:50.755Z,80.15
2017-09-20T00:10:02.680Z,80.11
2017-09-20T00:11:14.893Z,80.49
2017-09-20T00:12:27.422Z,80.72
2017-09-20T00:13:39.338Z,78.91
2017-09-20T00:14:51.891Z,79.25
2017-09-20T00:16:03.808Z,79.06
2017-09-20T00:17:16.354Z,79.25
2017-09-20T00:18:28.526Z,78.97
2017-09-20T00:19:40.774Z,78.88
2017-09-20T00:20:53.312Z,79.25
2017-09-20T00:22:05.862Z,79.06
2017-09-20T00:23:17.461Z,79.92
2017-09-20T00:24:29.707Z,80.21
2017-09-20T00:25:42.251Z,78.21
2017-09-20T00:26:54.848Z,79.06
2017-09-20T00:28:06.770Z,78.78
2017-09-20T00:29:19.306Z,79.25
2017-09-20T00:30:31.531Z,78.02
2017-09-20T00:31:44.069Z,78.59
2017-09-20T00:32:55.965Z,78.4
2017-09-20T00:34:08.189Z,77.73
2017-09-20T00:35:20.407Z,77.64
2017-09-20T00:36:32.909Z,78.02
2017-09-20T00:37:45.451Z,78.02
2017-09-20T00:38:57.997Z,77.64
2017-09-20T00:40:10.497Z,78.21
2017-09-20T00:41:23.034Z,78.4
2017-09-20T00:42:35.563Z,77.55
2017-09-20T00:43:47.476Z,77.83
2017-09-20T00:45:00.001Z,77.83
2017-09-20T00:46:12.517Z,78.3
2017-09-20T00:47:25.041Z,78.02
2017-09-20T00:48:36.662Z,78.4
2017-09-20T00:49:49.462Z,78.4
2017-09-20T00:51:01.999Z,78.3
2017-09-20T00:52:14.532Z,77.92
2017-09-20T00:53:26.432Z,77.83
2017-09-20T00:54:38.663Z,77.64
2017-09-20T00:55:49.945Z,77.64
2017-09-20T00:57:02.489Z,76.78
2017-09-20T00:58:15.048Z,77.73
2017-09-20T00:59:27.555Z,76.5
2017-09-20T01:00:39.476Z,77.07
2017-09-20T01:01:52.035Z,77.73
2017-09-20T01:03:03.943Z,77.73
2017-09-20T01:04:15.863Z,77.26
2017-09-20T01:05:28.079Z,76.59
2017-09-20T01:06:40.628Z,77.55
2017-09-20T01:07:52.826Z,77.83
2017-09-20T01:09:05.070Z,77.45
2017-09-20T01:10:17.640Z,76.97
2017-09-20T01:11:30.162Z,77.45
2017-09-20T01:12:42.678Z,77.64
2017-09-20T01:13:54.916Z,76.78
2017-09-20T01:15:06.225Z,76.5
2017-09-20T01:16:18.117Z,76.5
2017-09-20T01:17:30.589Z,76.59
2017-09-20T01:18:43.150Z,76.59
2017-09-20T01:19:55.060Z,76.59
2017-09-20T01:21:06.378Z,76.31
2017-09-20T01:22:18.615Z,76.31
2017-09-20T01:23:30.866Z,76.21
2017-09-20T01:24:43.392Z,75.55
2017-09-20T01:25:55.624Z,75.84
2017-09-20T01:27:07.848Z,75.26
2017-09-20T01:28:20.090Z,75.64
2017-09-20T01:29:32.613Z,76.4
2017-09-20T01:30:44.865Z,75.17
2017-09-20T01:31:57.385Z,75.7
2017-09-20T01:33:09.622Z,75.89
2017-09-20T01:34:21.526Z,76.4
2017-09-20T01:35:33.741Z,76.46
2017-09-20T01:36:45.971Z,76.31
2017-09-20T01:37:58.514Z,75.89
2017-09-20T01:39:10.761Z,76.65
2017-09-20T01:40:22.971Z,75.55
2017-09-20T01:41:35.499Z,75.99
2017-09-20T01:42:47.419Z,76.18
2017-09-20T01:43:59.641Z,76.37
2017-09-20T01:45:11.557Z,76.56
2017-09-20T01:46:23.787Z,76.56
2017-09-20T01:47:35.682Z,76.18
2017-09-20T01:48:47.916Z,76.56
2017-09-20T01:49:59.848Z,76.08
2017-09-20T01:51:11.182Z,76.65
2017-09-20T01:52:23.739Z,76.27
2017-09-20T01:53:36.277Z,75.99
2017-09-20T01:54:48.855Z,76.37
2017-09-20T01:56:01.368Z,76.46
2017-09-20T01:57:13.652Z,74.37
2017-09-20T01:58:26.196Z,74.56
2017-09-20T01:59:38.403Z,74.66
2017-09-20T02:00:50.959Z,74.47
2017-09-20T02:02:02.908Z,74.27
2017-09-20T02:03:15.468Z,74.66
2017-09-20T02:04:27.693Z,75.04
2017-09-20T02:05:40.209Z,74.66
2017-09-20T02:06:52.731Z,74.75
2017-09-20T02:08:04.971Z,74.18
2017-09-20T02:09:17.200Z,74.27
2017-09-20T02:10:29.112Z,74.75
2017-09-20T02:11:41.633Z,74.56
2017-09-20T02:12:53.866Z,74.08
2017-09-20T02:14:06.099Z,74.18
2017-09-20T02:15:18.331Z,73.99
2017-09-20T02:16:30.575Z,73.8
2017-09-20T02:17:42.814Z,73.61
2017-09-20T02:18:55.043Z,73.71
2017-09-20T02:20:07.588Z,73.61
2017-09-20T02:21:19.508Z,73.61
2017-09-20T02:22:32.073Z,74.18
2017-09-20T02:23:44.601Z,74.18
2017-09-20T02:24:57.142Z,74.18
2017-09-20T02:26:09.647Z,73.99
2017-09-20T02:27:21.588Z,74.37
2017-09-20T02:28:34.147Z,74.27
2017-09-20T02:29:46.679Z,74.18
2017-09-20T02:30:58.913Z,72.75
2017-09-20T02:32:11.134Z,71.52
2017-09-20T02:33:22.417Z,71.14
2017-09-20T02:34:34.979Z,70.29
2017-09-20T02:35:47.229Z,71.33
2017-09-20T02:36:59.775Z,71.33
2017-09-20T02:38:12.323Z,71.04
2017-09-20T02:39:24.558Z,71.04
2017-09-20T02:40:36.810Z,71.04
2017-09-20T02:41:49.360Z,70.95
2017-09-20T02:43:01.281Z,70.95
2017-09-20T02:44:13.822Z,71.14
2017-09-20T02:45:25.419Z,71.62
2017-09-20T02:46:37.641Z,71.9
2017-09-20T02:47:50.181Z,72.09
2017-09-20T02:49:02.385Z,72.03
2017-09-20T02:50:14.618Z,71.9
2017-09-20T02:51:26.527Z,72.28
2017-09-20T02:52:38.751Z,71.33
2017-09-20T02:53:51.284Z,71.04
2017-09-20T02:55:03.537Z,71.43
2017-09-20T02:56:15.751Z,72.09
2017-09-20T02:57:27.385Z,71.81
2017-09-20T02:58:39.596Z,72.13
2017-09-20T02:59:52.117Z,71.9
2017-09-20T03:01:04.342Z,72
2017-09-20T03:02:16.275Z,72.66
2017-09-20T03:03:28.806Z,72.47
2017-09-20T03:04:41.328Z,71.84
2017-09-20T03:05:53.549Z,72.75
2017-09-20T03:07:06.095Z,72.85
2017-09-20T03:08:18.640Z,72.66
2017-09-20T03:09:30.881Z,72.75
2017-09-20T03:10:42.794Z,72.28
2017-09-20T03:11:54.702Z,72.56
2017-09-20T03:13:06.897Z,71.9
2017-09-20T03:14:19.418Z,71.81
2017-09-20T03:15:31.978Z,72.09
2017-09-20T03:16:43.883Z,72.38
2017-09-20T03:17:56.105Z,71.62
2017-09-20T03:19:08.643Z,71.81
2017-09-20T03:20:21.145Z,72.09
2017-09-20T03:21:33.359Z,72.13
2017-09-20T03:22:45.864Z,71.81
2017-09-20T03:23:58.401Z,72.19
2017-09-20T03:25:10.654Z,72.09
2017-09-20T03:26:22.874Z,72.09
2017-09-20T03:27:35.109Z,71.9
2017-09-20T03:28:47.655Z,71.75
2017-09-20T03:29:59.878Z,72
2017-09-20T03:31:11.807Z,71.75
2017-09-20T03:32:23.753Z,71.46
2017-09-20T03:33:36.294Z,70.79
2017-09-20T03:34:48.819Z,70.99
2017-09-20T03:36:01.039Z,70.7
2017-09-20T03:37:12.956Z,70.61
2017-09-20T03:38:25.522Z,70.79
2017-09-20T03:39:38.069Z,70.7
2017-09-20T03:40:50.594Z,70.7
2017-09-20T03:42:02.813Z,71.08
2017-09-20T03:43:15.010Z,70.99
2017-09-20T03:44:26.930Z,70.61
2017-09-20T03:45:39.455Z,69.94
2017-09-20T03:46:51.973Z,70.13
2017-09-20T03:48:04.210Z,70.32
2017-09-20T03:49:15.813Z,70.23
2017-09-20T03:50:28.033Z,69.56
2017-09-20T03:51:40.551Z,69.85
2017-09-20T03:52:52.781Z,69.18
2017-09-20T03:54:05.001Z,68.61
2017-09-20T03:55:17.546Z,68.71
2017-09-20T03:56:29.487Z,68.33
2017-09-20T03:57:42.029Z,68.13
2017-09-20T03:58:53.933Z,68.23
2017-09-20T04:00:06.128Z,68.07
2017-09-20T04:01:18.645Z,68.17
2017-09-20T04:02:30.241Z,67.41
2017-09-20T04:03:42.793Z,67.5
2017-09-20T04:04:54.703Z,67.41
2017-09-20T04:06:07.255Z,66.55
2017-09-20T04:07:19.794Z,66.55
2017-09-20T04:08:31.990Z,66.84
2017-09-20T04:09:43.946Z,66.94
2017-09-20T04:10:56.165Z,66.94
2017-09-20T04:12:08.434Z,66.84
2017-09-20T04:13:20.057Z,67.03
2017-09-20T04:14:32.596Z,66.36
2017-09-20T04:15:44.838Z,66.84
2017-09-20T04:16:57.064Z,66.94
2017-09-20T04:18:08.951Z,67.03
2017-09-20T04:19:21.175Z,66.74
2017-09-20T04:20:33.400Z,66.74
2017-09-20T04:21:45.642Z,67.03
2017-09-20T04:22:58.187Z,66.84
2017-09-20T04:24:10.108Z,66.74
2017-09-20T04:25:22.350Z,66.94
2017-09-20T04:26:34.904Z,66.65
2017-09-20T04:27:47.116Z,66.39
2017-09-20T04:28:59.363Z,66.49
2017-09-20T04:30:10.689Z,66.59
2017-09-20T04:31:22.917Z,66.59
2017-09-20T04:32:35.474Z,66.49
2017-09-20T04:33:48.031Z,66.3
2017-09-20T04:35:00.590Z,66.3
2017-09-20T04:36:12.518Z,66.11
2017-09-20T04:37:24.411Z,66.11
2017-09-20T04:38:36.614Z,66.2
2017-09-20T04:39:48.813Z,66.49
2017-09-20T04:41:01.322Z,66.2
2017-09-20T04:42:13.550Z,66.3
2017-09-20T04:43:25.785Z,66.68
2017-09-20T04:44:38.318Z,66.68
2017-09-20T04:45:50.908Z,66.49
2017-09-20T04:47:03.447Z,66.59
2017-09-20T04:48:15.678Z,66.39
2017-09-20T04:49:27.917Z,66.39
2017-09-20T04:50:40.162Z,66.3
2017-09-20T04:51:52.707Z,66.59
2017-09-20T04:53:04.957Z,66.68
2017-09-20T04:54:17.153Z,66.49
2017-09-20T04:55:29.099Z,66.68
2017-09-20T04:56:41.624Z,66.68
2017-09-20T04:57:53.843Z,66.68
2017-09-20T04:59:06.307Z,66.49
2017-09-20T05:00:18.274Z,66.78
2017-09-20T05:01:30.802Z,66.49
2017-09-20T05:02:43.322Z,66.78
2017-09-20T05:03:55.571Z,66.49
2017-09-20T05:05:08.116Z,66.49
2017-09-20T05:06:20.028Z,66.49
2017-09-20T05:07:32.573Z,66.59
2017-09-20T05:08:45.097Z,66.68
2017-09-20T05:09:57.315Z,66.49
2017-09-20T05:11:09.845Z,66.3
2017-09-20T05:12:22.380Z,66.33
2017-09-20T05:13:34.901Z,66.49
2017-09-20T05:14:47.405Z,66.05
2017-09-20T05:15:59.646Z,66.24
2017-09-20T05:17:11.574Z,66.14
2017-09-20T05:18:23.837Z,66.72
2017-09-20T05:19:36.107Z,66.62
2017-09-20T05:20:48.582Z,66.53
2017-09-20T05:22:01.132Z,66.53
2017-09-20T05:23:13.370Z,66.33
2017-09-20T05:24:25.897Z,66.53
2017-09-20T05:25:38.436Z,66.33
2017-09-20T05:26:50.965Z,66.24
2017-09-20T05:28:03.207Z,66.33
2017-09-20T05:29:15.472Z,66.14
2017-09-20T05:30:28.002Z,66.33
2017-09-20T05:31:40.544Z,66.05
2017-09-20T05:32:52.493Z,66.33
2017-09-20T05:34:05.057Z,66.53
2017-09-20T05:35:17.301Z,66.14
2017-09-20T05:36:29.543Z,66.14
2017-09-20T05:37:41.767Z,66.43
2017-09-20T05:38:53.973Z,66.43
2017-09-20T05:40:05.909Z,66.62
2017-09-20T05:41:18.134Z,66.53
2017-09-20T05:42:30.672Z,66.62
2017-09-20T05:43:42.908Z,66.43
2017-09-20T05:44:54.519Z,66.24
2017-09-20T05:46:06.746Z,66.43
2017-09-20T05:47:19.290Z,66.72
2017-09-20T05:48:31.526Z,66.56
2017-09-20T05:49:43.782Z,66.14
2017-09-20T05:50:56.000Z,66.14
2017-09-20T05:52:08.244Z,65.89
2017-09-20T05:53:20.815Z,66.18
2017-09-20T05:54:33.036Z,66.27
2017-09-20T05:55:45.580Z,66.18
2017-09-20T05:56:58.105Z,66.27
2017-09-20T05:58:09.416Z,66.08
2017-09-20T05:59:21.593Z,66.27
2017-09-20T06:00:34.142Z,66.08
2017-09-20T06:01:46.381Z,66.27
2017-09-20T06:02:58.306Z,66.18
2017-09-20T06:04:10.852Z,66.46
2017-09-20T06:05:23.065Z,66.56
2017-09-20T06:06:34.985Z,66.56
2017-09-20T06:07:47.206Z,66.37
2017-09-20T06:08:59.087Z,66.27
2017-09-20T06:10:11.333Z,66.37
2017-09-20T06:11:23.906Z,66.56
2017-09-20T06:12:36.450Z,66.4
2017-09-20T06:13:49.012Z,66.5
2017-09-20T06:15:01.265Z,66.78
2017-09-20T06:16:13.511Z,67.55
2017-09-20T06:17:25.429Z,67.64
2017-09-20T06:18:37.966Z,68.12
2017-09-20T06:19:49.896Z,68.59
2017-09-20T06:21:02.436Z,68.88
2017-09-20T06:22:14.664Z,68.69
2017-09-20T06:23:26.885Z,69.54
2017-09-20T06:24:39.426Z,69.54
2017-09-20T06:25:51.997Z,69.83
2017-09-20T06:27:04.537Z,70.4
2017-09-20T06:28:16.443Z,69.64
2017-09-20T06:29:29.013Z,69.74
2017-09-20T06:30:40.910Z,69.83
2017-09-20T06:31:53.450Z,69.54
2017-09-20T06:33:05.045Z,69.83
2017-09-20T06:34:17.287Z,69.6
2017-09-20T06:35:29.516Z,70.12
2017-09-20T06:36:42.076Z,69.54
2017-09-20T06:37:54.279Z,69.83
2017-09-20T06:39:05.892Z,69.74
2017-09-20T06:40:17.521Z,70.02
2017-09-20T06:41:29.772Z,70.59
2017-09-20T06:42:42.304Z,70.78
2017-09-20T06:43:54.538Z,70.97
2017-09-20T06:45:06.774Z,70.78
2017-09-20T06:46:19.299Z,70.59
2017-09-20T06:47:31.548Z,70.4
2017-09-20T06:48:43.786Z,70.5
2017-09-20T06:49:56.030Z,70.02
2017-09-20T06:51:08.607Z,70.21
2017-09-20T06:52:21.156Z,70.4
2017-09-20T06:53:33.700Z,70.12
2017-09-20T06:54:45.936Z,70.12
2017-09-20T06:55:57.864Z,70.21
2017-09-20T06:57:09.781Z,70.31
2017-09-20T06:58:22.572Z,70.88
2017-09-20T06:59:34.797Z,71.83
2017-09-20T07:00:47.313Z,71.64
2017-09-20T07:01:59.246Z,71.64
2017-09-20T07:03:10.855Z,71.73
2017-09-20T07:04:22.760Z,72.41
2017-09-20T07:05:34.978Z,72.02
2017-09-20T07:06:47.200Z,72.02
2017-09-20T07:07:59.723Z,72.31
2017-09-20T07:09:11.922Z,72.12
2017-09-20T07:10:24.461Z,71.83
2017-09-20T07:11:36.084Z,71.93
2017-09-20T07:12:48.621Z,72.02
2017-09-20T07:14:00.799Z,72.16
2017-09-20T07:15:13.023Z,72.25
2017-09-20T07:16:25.561Z,72.92
2017-09-20T07:17:37.803Z,73.77
2017-09-20T07:18:49.724Z,74.63
2017-09-20T07:20:02.227Z,74.25
2017-09-20T07:21:14.152Z,73.49
2017-09-20T07:22:26.368Z,74.06
2017-09-20T07:23:38.617Z,74.63
2017-09-20T07:24:50.835Z,74.73
2017-09-20T07:26:03.359Z,74.44
2017-09-20T07:27:15.572Z,75.11
2017-09-20T07:28:27.497Z,75.01
2017-09-20T07:29:40.096Z,75.2
2017-09-20T07:30:52.309Z,75.2
2017-09-20T07:32:04.237Z,75.4
2017-09-20T07:33:16.773Z,75.2
2017-09-20T07:34:28.695Z,76.06
2017-09-20T07:35:40.325Z,75.96
2017-09-20T07:36:52.246Z,75.96
2017-09-20T07:38:04.468Z,76.44
2017-09-20T07:39:16.684Z,76.35
2017-09-20T07:40:29.221Z,77.72
2017-09-20T07:41:40.504Z,78.2
2017-09-20T07:42:53.065Z,78.01
2017-09-20T07:44:05.310Z,77.72
2017-09-20T07:45:17.510Z,78.01
2017-09-20T07:46:30.049Z,78.96
2017-09-20T07:47:42.602Z,78.86
2017-09-20T07:48:55.157Z,78.58
2017-09-20T07:50:07.089Z,78.49
2017-09-20T07:51:19.306Z,78.67
2017-09-20T07:52:31.827Z,78.3
2017-09-20T07:53:44.057Z,80.58
2017-09-20T07:54:56.296Z,80.2
2017-09-20T07:56:08.540Z,80.58
2017-09-20T07:57:20.472Z,80.11
2017-09-20T07:58:32.672Z,81.06
2017-09-20T07:59:44.925Z,80.39
2017-09-20T08:00:56.550Z,80.39
2017-09-20T08:02:08.468Z,81.25
2017-09-20T08:03:20.675Z,81.35
2017-09-20T08:04:32.908Z,81.44
2017-09-20T08:05:45.447Z,81.48
2017-09-20T08:06:57.987Z,81.38
2017-09-20T08:08:10.230Z,81.48
2017-09-20T08:09:22.453Z,81.48
2017-09-20T08:10:34.695Z,81.67
2017-09-20T08:11:46.937Z,82.63
2017-09-20T08:12:59.481Z,81.38
2017-09-20T08:14:11.404Z,83.29
2017-09-20T08:15:23.606Z,83.58
2017-09-20T08:16:35.818Z,83.77
2017-09-20T08:17:48.414Z,83.87
2017-09-20T08:19:00.634Z,83.87
2017-09-20T08:20:11.952Z,83.58
2017-09-20T08:21:24.480Z,83.58
2017-09-20T08:22:36.722Z,83.39
2017-09-20T08:23:49.265Z,84.25
2017-09-20T08:25:01.492Z,86.54
2017-09-20T08:26:12.770Z,87.21
2017-09-20T08:27:25.329Z,87.02
2017-09-20T08:28:37.577Z,87.49
2017-09-20T08:29:50.104Z,87.92
2017-09-20T08:31:02.663Z,88.78
2017-09-20T08:32:15.187Z,88.4
2017-09-20T08:33:27.433Z,88.97
2017-09-20T08:34:39.385Z,88.97
2017-09-20T08:35:51.924Z,88.78
2017-09-20T08:37:04.170Z,91.07
2017-09-20T08:38:16.398Z,90.11
2017-09-20T08:39:28.018Z,89.11
2017-09-20T08:40:40.563Z,91.97
2017-09-20T08:41:53.109Z,92.16
2017-09-20T08:43:04.703Z,93.21
2017-09-20T08:44:16.927Z,94.17
2017-09-20T08:45:29.164Z,93.21
2017-09-20T08:46:41.106Z,93.88
2017-09-20T08:47:53.635Z,94.27
2017-09-20T08:49:05.536Z,94.27
2017-09-20T08:50:18.095Z,94.41
2017-09-20T08:51:30.347Z,97.28
2017-09-20T08:52:42.293Z,95.75
2017-09-20T08:53:54.834Z,96.03
2017-09-20T08:55:06.455Z,97.56
2017-09-20T08:56:18.708Z,97.66
2017-09-20T08:57:30.928Z,98.23
2017-09-20T08:58:42.523Z,97.56
2017-09-20T08:59:55.085Z,98.13
2017-09-20T09:01:07.350Z,97.61
2017-09-20T09:02:19.911Z,97.99
2017-09-20T09:03:31.852Z,99.33
2017-09-20T09:04:44.102Z,99.04
2017-09-20T09:05:56.022Z,99.33
2017-09-20T09:07:07.945Z,99.04
2017-09-20T09:08:19.861Z,99.24
2017-09-20T09:09:32.401Z,99.04
2017-09-20T09:10:44.656Z,99.52
2017-09-20T09:11:55.969Z,99.52
2017-09-20T09:13:07.572Z,99.99
2017-09-20T09:14:19.485Z,99.33
2017-09-20T09:15:31.737Z,99.9
2017-09-20T09:16:43.981Z,99.52
2017-09-20T09:17:56.221Z,99.57
2017-09-20T09:19:08.703Z,99.99
2017-09-20T09:20:20.972Z,99.99
2017-09-20T09:21:33.230Z,99.99
2017-09-20T09:22:45.776Z,99.99
2017-09-20T09:23:58.309Z,99.81
2017-09-20T09:25:09.925Z,99.52
2017-09-20T09:26:21.838Z,99.72
2017-09-20T09:27:33.762Z,99.52
2017-09-20T09:28:46.015Z,99.77
2017-09-20T09:29:58.275Z,99.99
2017-09-20T09:31:10.184Z,99.77
2017-09-20T09:32:22.727Z,99.58
2017-09-20T09:33:35.268Z,99.38
2017-09-20T09:34:47.808Z,99.19
2017-09-20T09:36:00.339Z,99.43
2017-09-20T09:37:11.957Z,99.43
2017-09-20T09:38:23.878Z,99.63
2017-09-20T09:39:36.440Z,99.15
2017-09-20T09:40:48.997Z,98.67
2017-09-20T09:42:00.935Z,98.67
2017-09-20T09:43:13.176Z,98.86
2017-09-20T09:44:25.408Z,98.47
2017-09-20T09:45:37.343Z,98.52
2017-09-20T09:46:49.543Z,98.24
2017-09-20T09:48:02.084Z,98.05
2017-09-20T09:49:14.038Z,97.47
2017-09-20T09:50:25.933Z,97.85
2017-09-20T09:51:38.500Z,97.76
2017-09-20T09:52:51.045Z,97.85
2017-09-20T09:54:03.265Z,97.76
2017-09-20T09:55:15.217Z,97.09
2017-09-20T09:56:27.145Z,96.42
2017-09-20T09:57:39.378Z,97.09
2017-09-20T09:58:51.630Z,97.28
2017-09-20T10:00:03.542Z,96.99
2017-09-20T10:01:15.765Z,97.18
2017-09-20T10:02:27.692Z,96.8
2017-09-20T10:03:39.915Z,96.99
2017-09-20T10:04:52.498Z,96.56
2017-09-20T10:06:04.404Z,95.7
2017-09-20T10:07:16.640Z,96.18
2017-09-20T10:08:28.246Z,95.6
2017-09-20T10:09:40.164Z,94.84
2017-09-20T10:10:52.402Z,95.21
2017-09-20T10:12:04.934Z,94.74
2017-09-20T10:13:16.551Z,94.88
2017-09-20T10:14:28.801Z,95.36
2017-09-20T10:15:40.722Z,94.4
2017-09-20T10:16:52.963Z,94.49
2017-09-20T10:18:05.213Z,93.63
2017-09-20T10:19:17.154Z,93.44
2017-09-20T10:20:29.418Z,93.73
2017-09-20T10:21:41.350Z,93.77
2017-09-20T10:22:53.896Z,93.2
2017-09-20T10:24:06.429Z,93.59
2017-09-20T10:25:18.987Z,93.01
2017-09-20T10:26:30.920Z,93.49
2017-09-20T10:27:42.542Z,93.2
2017-09-20T10:28:55.065Z,92.77
2017-09-20T10:30:07.311Z,92.86
2017-09-20T10:31:19.912Z,92.38
2017-09-20T10:32:32.453Z,97.19
2017-09-20T10:33:44.697Z,95.07
2017-09-20T10:34:56.624Z,94.83
2017-09-20T10:36:08.220Z,95.6
2017-09-20T10:37:20.767Z,94.98
2017-09-20T10:38:33.010Z,94.74
2017-09-20T10:39:45.234Z,94.54
2017-09-20T10:40:57.793Z,93.16
2017-09-20T10:42:10.325Z,91.29
2017-09-20T10:43:22.545Z,89.66
2017-09-20T10:44:34.464Z,88.8
2017-09-20T10:45:46.660Z,87.03
2017-09-20T10:46:59.178Z,86.17
2017-09-20T10:48:11.708Z,85.84
2017-09-20T10:49:23.324Z,84.79
2017-09-20T10:50:35.895Z,83.83
2017-09-20T10:51:48.441Z,83.36
2017-09-20T10:53:00.333Z,82.54
2017-09-20T10:54:12.874Z,82.64
2017-09-20T10:55:25.144Z,82.17
2017-09-20T10:56:37.099Z,81.21
2017-09-20T10:57:49.332Z,80.54
2017-09-20T10:59:01.256Z,79.39
2017-09-20T11:00:13.510Z,78.43
2017-09-20T11:01:26.076Z,78.53
2017-09-20T11:02:37.701Z,78.49
2017-09-20T11:03:49.318Z,77.06
2017-09-20T11:05:01.885Z,77.09
2017-09-20T11:06:14.113Z,77.06
2017-09-20T11:07:26.659Z,77.15
2017-09-20T11:08:38.600Z,76.57
2017-09-20T11:09:50.518Z,76.96
2017-09-20T11:11:03.096Z,77.15
2017-09-20T11:12:15.333Z,77.15
2017-09-20T11:13:27.861Z,77.15
2017-09-20T11:14:40.396Z,74.66
2017-09-20T11:15:52.645Z,73.71
2017-09-20T11:17:04.554Z,73.33
2017-09-20T11:18:16.791Z,73.23
2017-09-20T11:19:29.011Z,73.61
2017-09-20T11:20:41.260Z,73.04
2017-09-20T11:21:53.798Z,71.7
2017-09-20T11:23:05.730Z,72.08
2017-09-20T11:24:17.945Z,70.87
2017-09-20T11:25:30.482Z,70.56
2017-09-20T11:26:43.003Z,70.3
2017-09-20T11:27:55.531Z,71.45
2017-09-20T11:29:07.780Z,70.87
2017-09-20T11:30:20.291Z,71.36
2017-09-20T11:31:32.522Z,71.07
2017-09-20T11:32:44.764Z,71.16
2017-09-20T11:33:57.001Z,72.31
2017-09-20T11:35:09.204Z,74.7
2017-09-20T11:36:20.829Z,77
2017-09-20T11:37:33.402Z,74.22
2017-09-20T11:38:45.638Z,73.75
2017-09-20T11:39:58.408Z,72.02
2017-09-20T11:41:10.335Z,71.3
2017-09-20T11:42:22.283Z,71.01
2017-09-20T11:43:34.504Z,72.63
2017-09-20T11:44:45.842Z,73.3
2017-09-20T11:45:58.387Z,73.88
2017-09-20T11:47:10.316Z,73.02
2017-09-20T11:48:22.849Z,77.36
2017-09-20T11:49:35.406Z,79.47
2017-09-20T11:50:47.974Z,77.36
2017-09-20T11:51:59.926Z,77.94
2017-09-20T11:53:12.186Z,77.17
2017-09-20T11:54:24.437Z,76.5
2017-09-20T11:55:37.001Z,76.69
2017-09-20T11:56:49.548Z,76.89
2017-09-20T11:58:01.789Z,75.83
2017-09-20T11:59:13.396Z,75.93
2017-09-20T12:00:25.621Z,74.97
2017-09-20T12:01:38.137Z,74.87
2017-09-20T12:02:50.354Z,75.73
2017-09-20T12:04:01.969Z,78.03
2017-09-20T12:05:14.521Z,77.75
2017-09-20T12:06:27.071Z,77.55
2017-09-20T12:07:38.679Z,78.7
2017-09-20T12:08:50.612Z,80.81
2017-09-20T12:10:02.557Z,80.62
2017-09-20T12:11:14.200Z,78.61
2017-09-20T12:12:26.751Z,81.38
2017-09-20T12:13:39.312Z,81.77
2017-09-20T12:14:51.854Z,83.59
2017-09-20T12:16:04.086Z,86.17
2017-09-20T12:17:16.328Z,85.12
2017-09-20T12:18:28.899Z,85.5
2017-09-20T12:19:41.463Z,86.65
2017-09-20T12:20:53.684Z,90.19
2017-09-20T12:22:05.939Z,87.03
2017-09-20T12:23:18.188Z,87.23
2017-09-20T12:24:30.728Z,85.79
2017-09-20T12:25:43.268Z,85.88
2017-09-20T12:26:55.818Z,84.92
2017-09-20T12:28:07.788Z,85.02
2017-09-20T12:29:20.006Z,85.69
2017-09-20T12:30:32.223Z,86.79
2017-09-20T12:31:44.450Z,87.27
2017-09-20T12:32:56.696Z,88.56
2017-09-20T12:34:08.917Z,88.8
2017-09-20T12:35:21.468Z,88.8
2017-09-20T12:36:33.984Z,88.47
2017-09-20T12:37:46.555Z,88.32
2017-09-20T12:38:59.120Z,88.8
2017-09-20T12:40:11.337Z,90.23
2017-09-20T12:41:23.836Z,90.72
2017-09-20T12:42:36.362Z,91.49
2017-09-20T12:43:48.585Z,89.57
2017-09-20T12:45:00.503Z,91.29
2017-09-20T12:46:12.749Z,88.61
2017-09-20T12:47:24.994Z,89.37
2017-09-20T12:48:37.239Z,88.03
2017-09-20T12:49:49.161Z,93.98
2017-09-20T12:51:01.699Z,90.62
2017-09-20T12:52:13.923Z,92.54
2017-09-20T12:53:26.474Z,91.1
2017-09-20T12:54:38.392Z,91.39
2017-09-20T12:55:50.994Z,91.58
2017-09-20T12:57:03.537Z,91.49
2017-09-20T12:58:15.754Z,90.62
2017-09-20T12:59:27.997Z,90.43
2017-09-20T13:00:39.942Z,90.53
2017-09-20T13:01:52.184Z,89.76
2017-09-20T13:03:04.413Z,89.47
2017-09-20T13:04:16.988Z,88.99
2017-09-20T13:05:28.635Z,88.99
2017-09-20T13:06:41.178Z,91
2017-09-20T13:07:53.416Z,90.33
2017-09-20T13:09:05.645Z,91.1
2017-09-20T13:10:17.865Z,90.43
2017-09-20T13:11:30.099Z,90
2017-09-20T13:12:42.306Z,90.72
2017-09-20T13:13:54.541Z,91.43
2017-09-20T13:15:06.465Z,92.3
2017-09-20T13:16:19.011Z,94.89
2017-09-20T13:17:31.555Z,92.97
2017-09-20T13:18:43.500Z,93.54
2017-09-20T13:19:55.723Z,94.69
2017-09-20T13:21:08.275Z,93.63
2017-09-20T13:22:20.517Z,97.09
2017-09-20T13:23:33.058Z,99.99
2017-09-20T13:24:45.312Z,96.8
2017-09-20T13:25:57.551Z,96.7
2017-09-20T13:27:09.497Z,98.14
2017-09-20T13:28:22.042Z,95.56
2017-09-20T13:29:34.619Z,96.32
2017-09-20T13:30:46.855Z,97.52
2017-09-20T13:31:58.776Z,96.22
2017-09-20T13:33:10.683Z,98.91
2017-09-20T13:34:22.605Z,98.81
2017-09-20T13:35:35.146Z,97.95
2017-09-20T13:36:47.696Z,98.24
2017-09-20T13:38:00.240Z,97.95
2017-09-20T13:39:13.114Z,97.56
2017-09-20T13:40:25.645Z,98.33
2017-09-20T13:41:37.869Z,96.94
2017-09-20T13:42:50.425Z,97.14
2017-09-20T13:44:02.639Z,96.84
2017-09-20T13:45:14.563Z,96.27
2017-09-20T13:46:26.473Z,95.31
2017-09-20T13:47:39.028Z,95.12
2017-09-20T13:48:51.552Z,94.35
2017-09-20T13:50:04.084Z,95.75
2017-09-20T13:51:16.035Z,94.4
2017-09-20T13:52:28.260Z,93.16
2017-09-20T13:53:40.484Z,92.58
2017-09-20T13:54:53.021Z,92.01
2017-09-20T13:56:05.292Z,91.92
2017-09-20T13:57:17.540Z,91.49
2017-09-20T13:58:30.087Z,91.39
2017-09-20T13:59:42.652Z,90.82
2017-09-20T14:00:55.121Z,90.44
2017-09-20T14:02:07.054Z,90.34
2017-09-20T14:03:19.613Z,89.38
2017-09-20T14:04:32.148Z,89.86
2017-09-20T14:05:44.678Z,89.29
2017-09-20T14:06:56.936Z,88.9
2017-09-20T14:08:09.482Z,88.81
2017-09-20T14:09:21.702Z,88.9
2017-09-20T14:10:33.637Z,89.29
2017-09-20T14:11:45.546Z,89.58
2017-09-20T14:12:57.802Z,90.44
2017-09-20T14:14:10.030Z,90.05
2017-09-20T14:15:22.271Z,92.16
2017-09-20T14:16:34.496Z,95.07
2017-09-20T14:17:46.443Z,93.02
2017-09-20T14:18:58.988Z,95.65
2017-09-20T14:20:10.933Z,93.64
2017-09-20T14:21:23.486Z,94.31
2017-09-20T14:22:35.980Z,94.5
2017-09-20T14:23:48.223Z,93.74
2017-09-20T14:25:00.175Z,93.74
2017-09-20T14:26:12.759Z,94.89
2017-09-20T14:27:25.275Z,94.41
2017-09-20T14:28:37.171Z,97.85
2017-09-20T14:29:49.420Z,96.13
2017-09-20T14:31:01.990Z,96.51
2017-09-20T14:32:14.544Z,98.81
2017-09-20T14:33:26.786Z,98.24
2017-09-20T14:34:39.028Z,99.57
2017-09-20T14:35:51.583Z,98.81
2017-09-20T14:37:04.124Z,99
2017-09-20T14:38:16.686Z,99.38
2017-09-20T14:39:29.195Z,99.48
2017-09-20T14:40:41.757Z,98.14
2017-09-20T14:41:54.280Z,99.57
2017-09-20T14:43:06.204Z,98.14
2017-09-20T14:44:18.447Z,99.67
2017-09-20T14:45:30.359Z,98.61
2017-09-20T14:46:42.905Z,99.57
2017-09-20T14:47:55.134Z,98.52
2017-09-20T14:49:07.652Z,99
2017-09-20T14:50:20.221Z,98.43
2017-09-20T14:51:32.763Z,99.48
2017-09-20T14:52:45.288Z,99.76
2017-09-20T14:53:57.513Z,99.19
2017-09-20T14:55:09.436Z,99.67
2017-09-20T14:56:22.003Z,99.48
2017-09-20T14:57:34.549Z,99.19
2017-09-20T14:58:46.762Z,99.86
2017-09-20T14:59:59.294Z,99.86
2017-09-20T15:01:11.515Z,99.48
2017-09-20T15:02:24.052Z,99.38
2017-09-20T15:03:36.597Z,99.96
2017-09-20T15:04:48.819Z,99.19
2017-09-20T15:06:01.069Z,99.29
2017-09-20T15:07:12.989Z,99.57
2017-09-20T15:08:24.912Z,99.99
2017-09-20T15:09:37.148Z,99.99
2017-09-20T15:10:49.376Z,98.24
2017-09-20T15:12:01.626Z,99.57
2017-09-20T15:13:14.160Z,99.48
2017-09-20T15:14:26.691Z,99.57
2017-09-20T15:15:39.262Z,99.76
2017-09-20T15:16:51.456Z,99.99
2017-09-20T15:18:04.002Z,99.76
2017-09-20T15:19:16.577Z,99.76
2017-09-20T15:20:28.212Z,99.99
2017-09-20T15:21:40.437Z,99.57
2017-09-20T15:22:52.661Z,99.99
2017-09-20T15:24:04.903Z,99.29
2017-09-20T15:25:16.816Z,99.96
2017-09-20T15:26:29.015Z,99.99
2017-09-20T15:27:41.264Z,99.96
2017-09-20T15:28:53.782Z,99.99
2017-09-20T15:30:06.027Z,98.81
2017-09-20T15:31:18.595Z,99.57
2017-09-20T15:32:31.115Z,99.96
2017-09-20T15:33:42.724Z,99.38